createdAt,value
2023-05-19T00:00:28.640Z,5.93
2023-05-19T00:01:31.058Z,8.20
2023-05-19T00:02:33.821Z,8.25
2023-05-19T00:03:40.715Z,8.68
2023-05-19T00:04:42.469Z,7.55
2023-05-19T00:05:46.212Z,8.60
2023-05-19T00:06:51.078Z,9.75
2023-05-19T00:07:56.457Z,9.45
2023-05-19T00:08:59.657Z,9.65
2023-05-19T00:10:01.615Z,9.15
2023-05-19T00:11:03.339Z,9.50
2023-05-19T00:12:05.089Z,8.93
2023-05-19T00:13:07.082Z,8.68
2023-05-19T00:14:09.647Z,7.45
2023-05-19T00:15:11.822Z,8.05
2023-05-19T00:16:13.633Z,9.27
2023-05-19T00:17:16.868Z,8.40
2023-05-19T00:18:18.505Z,7.75
2023-05-19T00:19:20.140Z,6.63
2023-05-19T00:20:22.071Z,7.15
2023-05-19T00:21:23.634Z,6.13
2023-05-19T00:22:25.994Z,5.93
2023-05-19T00:23:27.635Z,5.68
2023-05-19T00:24:29.149Z,5.15
2023-05-19T00:25:30.751Z,5.85
2023-05-19T00:26:32.312Z,4.75
2023-05-19T00:27:33.843Z,5.75
2023-05-19T00:28:35.365Z,5.55
2023-05-19T00:29:36.954Z,6.20
2023-05-19T00:30:38.424Z,5.40
2023-05-19T00:31:40.090Z,4.65
2023-05-19T00:32:41.799Z,4.82
2023-05-19T00:33:43.409Z,5.35
2023-05-19T00:34:45.599Z,5.55
2023-05-19T00:35:47.223Z,5.38
2023-05-19T00:36:48.907Z,5.80
2023-05-19T00:37:50.445Z,5.70
2023-05-19T00:38:52.028Z,5.90
2023-05-19T00:39:53.634Z,5.68
2023-05-19T00:40:55.544Z,5.30
2023-05-19T00:41:57.336Z,5.00
2023-05-19T00:42:58.886Z,4.68
2023-05-19T00:44:00.547Z,4.72
2023-05-19T00:45:02.149Z,5.70
2023-05-19T00:46:03.995Z,5.72
2023-05-19T00:47:05.805Z,5.53
2023-05-19T00:48:07.484Z,4.82
2023-05-19T00:49:09.009Z,6.10
2023-05-19T00:50:10.645Z,5.88
2023-05-19T00:51:14.730Z,6.65
2023-05-19T00:52:16.326Z,5.82
2023-05-19T00:53:18.618Z,5.82
2023-05-19T00:54:20.987Z,5.75
2023-05-19T00:55:23.307Z,6.10
2023-05-19T00:56:24.970Z,5.63
2023-05-19T00:57:27.167Z,6.88
2023-05-19T00:58:30.403Z,5.45
2023-05-19T00:59:32.215Z,5.97
2023-05-19T01:00:34.309Z,5.68
2023-05-19T01:01:36.877Z,5.43
2023-05-19T01:02:40.104Z,5.57
2023-05-19T01:03:42.906Z,5.03
2023-05-19T01:04:45.076Z,4.25
2023-05-19T01:05:47.613Z,4.80
2023-05-19T01:06:49.796Z,5.35
2023-05-19T01:07:53.547Z,5.80
2023-05-19T01:08:56.014Z,5.78
2023-05-19T01:09:58.037Z,5.78
2023-05-19T01:11:00.024Z,5.63
2023-05-19T01:12:01.744Z,5.57
2023-05-19T01:13:04.580Z,6.15
2023-05-19T01:14:06.468Z,6.18
2023-05-19T01:15:09.948Z,6.57
2023-05-19T01:16:14.912Z,6.93
2023-05-19T01:17:19.323Z,6.22
2023-05-19T01:18:26.083Z,5.20
2023-05-19T01:19:39.617Z,7.20
2023-05-19T01:20:53.929Z,5.03
2023-05-19T01:22:14.511Z,6.35
2023-05-19T01:23:36.593Z,6.10
2023-05-19T01:24:56.285Z,5.80
2023-05-19T01:25:57.794Z,6.05
2023-05-19T01:27:18.112Z,6.25
2023-05-19T01:28:48.719Z,5.68
2023-05-19T01:30:09.294Z,5.88
2023-05-19T01:31:12.042Z,5.78
2023-05-19T01:32:15.723Z,6.05
2023-05-19T01:33:18.096Z,6.38
2023-05-19T01:34:20.747Z,5.45
2023-05-19T01:35:26.196Z,5.25
2023-05-19T01:36:27.893Z,5.03
2023-05-19T01:37:29.647Z,5.25
2023-05-19T01:38:34.248Z,5.85
2023-05-19T01:39:35.853Z,5.40
2023-05-19T01:40:38.362Z,5.90
2023-05-19T01:41:41.513Z,5.50
2023-05-19T01:42:45.360Z,5.68
2023-05-19T01:43:47.629Z,5.50
2023-05-19T01:44:49.336Z,5.43
2023-05-19T01:45:51.247Z,5.35
2023-05-19T01:46:52.989Z,5.32
2023-05-19T01:47:56.196Z,5.28
2023-05-19T01:48:58.059Z,5.15
2023-05-19T01:49:59.634Z,4.72
2023-05-19T01:51:01.315Z,5.93
2023-05-19T01:52:02.946Z,5.30
2023-05-19T01:53:04.967Z,5.47
2023-05-19T01:54:06.681Z,5.20
2023-05-19T01:55:08.605Z,6.05
2023-05-19T01:56:10.587Z,5.25
2023-05-19T01:57:30.846Z,5.80
2023-05-19T01:58:41.288Z,5.97
2023-05-19T01:59:50.807Z,5.30
2023-05-19T02:00:56.464Z,5.97
2023-05-19T02:02:00.125Z,6.28
2023-05-19T02:03:07.739Z,5.30
2023-05-19T02:04:41.680Z,5.90
2023-05-19T02:06:03.305Z,5.60
2023-05-19T02:07:17.341Z,5.20
2023-05-19T02:08:30.341Z,5.80
2023-05-19T02:09:39.747Z,5.35
2023-05-19T02:10:43.652Z,6.38
2023-05-19T02:11:45.743Z,5.30
2023-05-19T02:12:49.926Z,6.57
2023-05-19T02:13:55.718Z,6.18
2023-05-19T02:15:04.793Z,5.72
2023-05-19T02:16:07.409Z,6.10
2023-05-19T02:17:10.378Z,5.50
2023-05-19T02:18:12.430Z,5.93
2023-05-19T02:19:35.466Z,5.75
2023-05-19T02:20:37.361Z,4.55
2023-05-19T02:21:38.999Z,5.28
2023-05-19T02:22:41.010Z,5.15
2023-05-19T02:23:42.636Z,5.38
2023-05-19T02:24:46.567Z,4.55
2023-05-19T02:25:48.101Z,5.20
2023-05-19T02:26:50.535Z,5.68
2023-05-19T02:27:52.328Z,5.13
2023-05-19T02:28:53.792Z,4.90
2023-05-19T02:29:55.520Z,4.78
2023-05-19T02:30:57.124Z,5.25
2023-05-19T02:31:58.782Z,4.88
2023-05-19T02:33:00.471Z,5.63
2023-05-19T02:34:02.166Z,4.80
2023-05-19T02:35:04.035Z,5.20
2023-05-19T02:36:05.851Z,4.70
2023-05-19T02:37:07.711Z,5.20
2023-05-19T02:38:09.293Z,4.75
2023-05-19T02:39:11.142Z,4.75
2023-05-19T02:40:12.706Z,6.00
2023-05-19T02:41:14.229Z,5.50
2023-05-19T02:42:18.273Z,5.55
2023-05-19T02:43:19.948Z,5.20
2023-05-19T02:44:21.396Z,5.97
2023-05-19T02:45:22.959Z,5.97
2023-05-19T02:46:24.577Z,4.90
2023-05-19T02:47:26.170Z,5.60
2023-05-19T02:48:27.812Z,4.90
2023-05-19T02:49:35.926Z,5.00
2023-05-19T02:50:37.628Z,5.80
2023-05-19T02:51:39.346Z,5.00
2023-05-19T02:52:41.110Z,5.60
2023-05-19T02:53:43.145Z,4.53
2023-05-19T02:54:44.913Z,5.28
2023-05-19T02:55:46.423Z,5.35
2023-05-19T02:56:47.959Z,5.63
2023-05-19T02:57:49.504Z,5.55
2023-05-19T02:58:52.106Z,5.50
2023-05-19T02:59:53.676Z,5.20
2023-05-19T03:00:56.050Z,5.13
2023-05-19T03:02:00.258Z,5.13
2023-05-19T03:03:03.020Z,6.10
2023-05-19T03:04:04.816Z,5.15
2023-05-19T03:05:06.982Z,5.43
2023-05-19T03:06:08.783Z,5.82
2023-05-19T03:07:10.605Z,5.97
2023-05-19T03:08:12.193Z,6.25
2023-05-19T03:09:14.537Z,5.60
2023-05-19T03:10:16.177Z,5.75
2023-05-19T03:11:17.725Z,5.38
2023-05-19T03:12:19.367Z,6.15
2023-05-19T03:13:21.008Z,5.78
2023-05-19T03:14:24.531Z,6.55
2023-05-19T03:15:26.220Z,6.43
2023-05-19T03:16:28.215Z,7.18
2023-05-19T03:17:33.834Z,6.10
2023-05-19T03:18:36.271Z,5.38
2023-05-19T03:19:37.994Z,5.60
2023-05-19T03:20:41.652Z,5.63
2023-05-19T03:21:43.330Z,6.45
2023-05-19T03:22:44.848Z,5.25
2023-05-19T03:23:47.321Z,5.60
2023-05-19T03:24:51.133Z,5.95
2023-05-19T03:25:54.259Z,5.25
2023-05-19T03:26:56.022Z,5.65
2023-05-19T03:27:57.579Z,5.43
2023-05-19T03:28:59.118Z,5.57
2023-05-19T03:30:00.808Z,6.15
2023-05-19T03:31:02.387Z,6.30
2023-05-19T03:32:04.196Z,5.38
2023-05-19T03:33:05.914Z,5.20
2023-05-19T03:34:07.488Z,5.70
2023-05-19T03:35:09.253Z,5.80
2023-05-19T03:36:12.668Z,5.78
2023-05-19T03:37:14.527Z,6.00
2023-05-19T03:38:16.135Z,5.85
2023-05-19T03:39:17.710Z,6.45
2023-05-19T03:40:19.320Z,4.70
2023-05-19T03:41:21.283Z,5.68
2023-05-19T03:42:22.928Z,5.38
2023-05-19T03:43:24.596Z,5.55
2023-05-19T03:44:26.216Z,5.65
2023-05-19T03:45:28.048Z,5.60
2023-05-19T03:46:29.702Z,6.00
2023-05-19T03:47:31.803Z,5.10
2023-05-19T03:48:33.358Z,6.40
2023-05-19T03:49:34.868Z,6.00
2023-05-19T03:50:38.040Z,5.25
2023-05-19T03:51:39.781Z,5.70
2023-05-19T03:52:46.767Z,4.95
2023-05-19T03:53:48.793Z,4.70
2023-05-19T03:54:51.298Z,5.30
2023-05-19T03:55:52.998Z,5.10
2023-05-19T03:56:54.933Z,5.55
2023-05-19T03:57:57.053Z,5.05
2023-05-19T03:58:59.533Z,6.47
2023-05-19T04:00:01.117Z,5.95
2023-05-19T04:01:02.930Z,6.32
2023-05-19T04:02:04.704Z,5.40
2023-05-19T04:03:06.402Z,5.75
2023-05-19T04:04:08.163Z,5.53
2023-05-19T04:05:10.275Z,5.22
2023-05-19T04:06:12.944Z,5.43
2023-05-19T04:07:14.551Z,4.65
2023-05-19T04:08:16.291Z,5.65
2023-05-19T04:09:19.429Z,5.18
2023-05-19T04:10:21.091Z,5.07
2023-05-19T04:11:22.744Z,5.30
2023-05-19T04:12:24.408Z,6.20
2023-05-19T04:13:26.184Z,5.93
2023-05-19T04:14:28.096Z,5.72
2023-05-19T04:15:29.683Z,5.65
2023-05-19T04:16:31.294Z,5.38
2023-05-19T04:17:33.024Z,4.95
2023-05-19T04:18:34.599Z,5.13
2023-05-19T04:19:36.244Z,5.13
2023-05-19T04:20:37.877Z,4.95
2023-05-19T04:21:39.488Z,5.40
2023-05-19T04:22:41.560Z,5.00
2023-05-19T04:23:43.474Z,4.80
2023-05-19T04:24:46.421Z,4.30
2023-05-19T04:25:50.723Z,4.45
2023-05-19T04:26:53.324Z,5.43
2023-05-19T04:27:57.855Z,5.03
2023-05-19T04:28:59.548Z,5.00
2023-05-19T04:30:01.056Z,4.22
2023-05-19T04:31:03.632Z,4.60
2023-05-19T04:32:07.961Z,4.40
2023-05-19T04:33:09.755Z,4.13
2023-05-19T04:34:11.479Z,5.15
2023-05-19T04:35:13.744Z,4.70
2023-05-19T04:36:17.481Z,4.47
2023-05-19T04:37:20.468Z,4.60
2023-05-19T04:38:22.235Z,5.05
2023-05-19T04:39:24.241Z,4.82
2023-05-19T04:40:25.868Z,5.20
2023-05-19T04:41:27.444Z,5.45
2023-05-19T04:42:33.074Z,5.25
2023-05-19T04:43:34.588Z,4.45
2023-05-19T04:44:38.070Z,4.63
2023-05-19T04:45:42.603Z,4.75
2023-05-19T04:46:45.249Z,4.95
2023-05-19T04:47:49.698Z,4.97
2023-05-19T04:48:51.740Z,5.10
2023-05-19T04:49:55.734Z,7.10
2023-05-19T04:50:57.860Z,6.95
2023-05-19T04:51:59.488Z,7.45
2023-05-19T04:53:01.181Z,7.18
2023-05-19T04:54:04.031Z,7.65
2023-05-19T04:55:05.922Z,8.15
2023-05-19T04:56:07.644Z,7.53
2023-05-19T04:57:10.543Z,7.22
2023-05-19T04:58:12.071Z,6.07
2023-05-19T04:59:13.640Z,6.00
2023-05-19T05:00:15.534Z,7.13
2023-05-19T05:01:17.211Z,7.47
2023-05-19T05:02:18.737Z,7.00
2023-05-19T05:03:22.933Z,7.60
2023-05-19T05:04:24.771Z,6.72
2023-05-19T05:05:26.371Z,6.90
2023-05-19T05:06:28.686Z,7.85
2023-05-19T05:07:32.209Z,7.53
2023-05-19T05:08:34.219Z,6.95
2023-05-19T05:09:35.898Z,7.20
2023-05-19T05:10:37.570Z,5.50
2023-05-19T05:11:39.197Z,5.68
2023-05-19T05:12:41.152Z,6.18
2023-05-19T05:13:42.943Z,5.45
2023-05-19T05:14:44.571Z,5.50
2023-05-19T05:15:49.098Z,5.20
2023-05-19T05:16:50.906Z,5.30
2023-05-19T05:17:52.690Z,4.90
2023-05-19T05:18:54.376Z,4.97
2023-05-19T05:19:55.967Z,5.05
2023-05-19T05:20:57.619Z,4.30
2023-05-19T05:21:59.495Z,5.30
2023-05-19T05:23:01.236Z,4.70
2023-05-19T05:24:02.968Z,5.10
2023-05-19T05:25:05.185Z,4.80
2023-05-19T05:26:10.376Z,5.10
2023-05-19T05:27:11.969Z,4.20
2023-05-19T05:28:13.667Z,4.70
2023-05-19T05:29:15.151Z,3.75
2023-05-19T05:30:16.628Z,5.17
2023-05-19T05:31:18.257Z,4.17
2023-05-19T05:32:19.910Z,4.00
2023-05-19T05:33:22.389Z,4.20
2023-05-19T05:34:24.607Z,4.47
2023-05-19T05:35:26.306Z,3.65
2023-05-19T05:36:27.907Z,3.30
2023-05-19T05:37:30.436Z,3.47
2023-05-19T05:38:31.996Z,3.37
2023-05-19T05:39:33.510Z,3.90
2023-05-19T05:40:35.137Z,3.17
2023-05-19T05:41:36.705Z,2.77
2023-05-19T05:42:38.513Z,3.40
2023-05-19T05:43:40.040Z,3.57
2023-05-19T05:44:41.881Z,3.03
2023-05-19T05:45:43.480Z,3.57
2023-05-19T05:46:45.319Z,2.80
2023-05-19T05:47:47.208Z,3.70
2023-05-19T05:48:48.967Z,2.83
2023-05-19T05:49:52.169Z,2.50
2023-05-19T05:50:56.501Z,2.40
2023-05-19T05:52:05.537Z,3.30
2023-05-19T05:53:09.456Z,2.67
2023-05-19T05:54:11.892Z,3.40
2023-05-19T05:55:13.890Z,3.10
2023-05-19T05:56:15.546Z,3.00
2023-05-19T05:57:17.316Z,3.33
2023-05-19T05:58:18.860Z,3.10
2023-05-19T05:59:20.506Z,2.63
2023-05-19T06:00:22.400Z,3.40
2023-05-19T06:01:24.046Z,2.50
2023-05-19T06:02:25.976Z,2.60
2023-05-19T06:03:27.657Z,2.80
2023-05-19T06:04:29.266Z,2.70
2023-05-19T06:05:31.000Z,3.40
2023-05-19T06:06:32.894Z,3.67
2023-05-19T06:07:34.520Z,2.70
2023-05-19T06:08:36.382Z,2.40
2023-05-19T06:09:37.981Z,2.90
2023-05-19T06:10:41.707Z,2.93
2023-05-19T06:11:43.221Z,3.63
2023-05-19T06:12:44.942Z,3.20
2023-05-19T06:13:46.567Z,3.20
2023-05-19T06:14:48.522Z,3.00
2023-05-19T06:15:51.153Z,3.00
2023-05-19T06:16:52.994Z,2.77
2023-05-19T06:17:54.825Z,3.07
2023-05-19T06:18:56.554Z,2.37
2023-05-19T06:19:58.304Z,3.20
2023-05-19T06:21:00.072Z,3.67
2023-05-19T06:22:01.689Z,3.20
2023-05-19T06:23:03.294Z,3.53
2023-05-19T06:24:04.952Z,3.60
2023-05-19T06:25:08.993Z,3.50
2023-05-19T06:26:10.719Z,2.77
2023-05-19T06:27:12.306Z,3.43
2023-05-19T06:28:14.148Z,3.30
2023-05-19T06:29:15.792Z,3.17
2023-05-19T06:30:17.369Z,3.23
2023-05-19T06:31:19.102Z,3.10
2023-05-19T06:32:20.932Z,2.83
2023-05-19T06:33:22.548Z,2.83
2023-05-19T06:34:24.386Z,3.03
2023-05-19T06:35:26.484Z,3.53
2023-05-19T06:36:28.053Z,3.20
2023-05-19T06:37:29.621Z,2.67
2023-05-19T06:38:31.555Z,2.83
2023-05-19T06:39:33.371Z,3.20
2023-05-19T06:40:36.122Z,2.57
2023-05-19T06:41:37.735Z,3.03
2023-05-19T06:42:39.636Z,3.30
2023-05-19T06:43:42.183Z,2.90
2023-05-19T06:44:43.970Z,3.30
2023-05-19T06:45:45.456Z,3.93
2023-05-19T06:46:47.108Z,3.73
2023-05-19T06:47:49.409Z,3.30
2023-05-19T06:48:51.102Z,2.97
2023-05-19T06:49:55.732Z,2.83
2023-05-19T06:50:57.319Z,3.50
2023-05-19T06:51:58.851Z,3.30
2023-05-19T06:53:00.610Z,2.90
2023-05-19T06:54:02.396Z,2.70
2023-05-19T06:55:04.075Z,3.30
2023-05-19T06:56:05.856Z,2.47
2023-05-19T06:57:07.527Z,2.80
2023-05-19T06:58:09.236Z,3.00
2023-05-19T06:59:10.946Z,2.87
2023-05-19T07:00:15.159Z,3.10
2023-05-19T07:01:18.609Z,3.60
2023-05-19T07:02:20.188Z,3.43
2023-05-19T07:03:21.915Z,3.63
2023-05-19T07:04:23.563Z,3.40
2023-05-19T07:05:25.119Z,3.20
2023-05-19T07:06:26.751Z,3.57
2023-05-19T07:07:28.298Z,2.60
2023-05-19T07:08:29.856Z,3.50
2023-05-19T07:09:31.550Z,3.00
2023-05-19T07:10:33.483Z,3.77
2023-05-19T07:11:35.246Z,2.80
2023-05-19T07:12:36.735Z,3.13
2023-05-19T07:13:38.264Z,3.03
2023-05-19T07:14:39.789Z,2.80
2023-05-19T07:15:41.499Z,2.83
2023-05-19T07:16:43.285Z,3.50
2023-05-19T07:17:45.090Z,3.20
2023-05-19T07:18:46.835Z,3.83
2023-05-19T07:19:48.459Z,3.37
2023-05-19T07:20:51.801Z,3.90
2023-05-19T07:21:53.443Z,2.93
2023-05-19T07:22:55.109Z,3.63
2023-05-19T07:23:56.615Z,3.13
2023-05-19T07:24:58.701Z,3.03
2023-05-19T07:26:00.256Z,4.33
2023-05-19T07:27:01.803Z,3.97
2023-05-19T07:28:03.451Z,3.07
2023-05-19T07:29:05.202Z,3.33
2023-05-19T07:30:08.927Z,3.20
2023-05-19T07:31:10.518Z,3.33
2023-05-19T07:32:12.196Z,3.17
2023-05-19T07:33:13.831Z,3.07
2023-05-19T07:34:15.549Z,3.60
2023-05-19T07:35:17.223Z,2.77
2023-05-19T07:36:18.848Z,2.53
2023-05-19T07:37:20.555Z,2.83
2023-05-19T07:38:22.080Z,2.70
2023-05-19T07:39:26.338Z,3.07
2023-05-19T07:40:27.965Z,3.00
2023-05-19T07:41:29.683Z,2.70
2023-05-19T07:42:31.436Z,3.23
2023-05-19T07:43:32.995Z,2.30
2023-05-19T07:44:34.845Z,2.90
2023-05-19T07:45:36.424Z,3.40
2023-05-19T07:46:38.264Z,3.63
2023-05-19T07:47:39.946Z,3.70
2023-05-19T07:48:41.636Z,3.93
2023-05-19T07:49:43.245Z,3.10
2023-05-19T07:50:44.789Z,2.70
2023-05-19T07:51:46.453Z,3.67
2023-05-19T07:52:47.982Z,3.13
2023-05-19T07:53:49.903Z,3.77
2023-05-19T07:54:51.550Z,3.40
2023-05-19T07:55:53.193Z,3.60
2023-05-19T07:56:54.724Z,3.60
2023-05-19T07:57:56.308Z,3.03
2023-05-19T07:58:57.908Z,3.23
2023-05-19T07:59:59.450Z,3.50
2023-05-19T08:01:01.073Z,3.93
2023-05-19T08:02:02.699Z,3.60
2023-05-19T08:03:04.364Z,3.37
2023-05-19T08:04:06.194Z,2.87
2023-05-19T08:05:09.301Z,2.93
2023-05-19T08:06:10.850Z,3.30
2023-05-19T08:07:12.420Z,3.93
2023-05-19T08:08:16.612Z,3.07
2023-05-19T08:09:18.771Z,3.47
2023-05-19T08:10:20.492Z,4.13
2023-05-19T08:11:22.036Z,3.63
2023-05-19T08:12:23.693Z,2.93
2023-05-19T08:13:25.249Z,2.90
2023-05-19T08:14:27.514Z,3.37
2023-05-19T08:15:29.196Z,2.53
2023-05-19T08:16:30.829Z,2.70
2023-05-19T08:17:32.519Z,2.87
2023-05-19T08:18:34.155Z,3.17
2023-05-19T08:19:35.774Z,2.67
2023-05-19T08:20:37.574Z,2.90
2023-05-19T08:21:39.164Z,3.73
2023-05-19T08:22:40.991Z,2.50
2023-05-19T08:23:42.664Z,3.30
2023-05-19T08:24:44.855Z,2.50
2023-05-19T08:25:46.476Z,2.50
2023-05-19T08:26:48.095Z,2.63
2023-05-19T08:27:50.221Z,2.60
2023-05-19T08:28:51.779Z,2.30
2023-05-19T08:29:55.221Z,2.73
2023-05-19T08:30:56.891Z,3.17
2023-05-19T08:31:58.576Z,3.00
2023-05-19T08:33:00.255Z,3.00
2023-05-19T08:34:02.108Z,3.10
2023-05-19T08:35:04.180Z,2.83
2023-05-19T08:36:06.570Z,2.83
2023-05-19T08:37:08.198Z,2.60
2023-05-19T08:38:09.725Z,2.73
2023-05-19T08:39:11.839Z,3.30
2023-05-19T08:40:16.687Z,3.07
2023-05-19T08:41:18.376Z,3.50
2023-05-19T08:42:19.897Z,3.33
2023-05-19T08:43:21.632Z,2.70
2023-05-19T08:44:23.381Z,3.30
2023-05-19T08:45:25.037Z,3.50
2023-05-19T08:46:27.038Z,3.33
2023-05-19T08:47:28.799Z,2.70
2023-05-19T08:48:33.745Z,3.43
2023-05-19T08:49:37.164Z,3.40
2023-05-19T08:50:39.932Z,3.30
2023-05-19T08:51:41.627Z,3.60
2023-05-19T08:52:50.242Z,3.63
2023-05-19T08:53:56.298Z,3.43
2023-05-19T08:55:13.172Z,3.60
2023-05-19T08:56:15.435Z,3.30
2023-05-19T08:57:17.242Z,3.47
2023-05-19T08:58:20.524Z,3.67
2023-05-19T08:59:22.289Z,3.00
2023-05-19T09:00:23.948Z,3.57
2023-05-19T09:01:26.766Z,2.90
2023-05-19T09:02:28.968Z,3.07
2023-05-19T09:03:32.829Z,3.47
2023-05-19T09:04:34.893Z,2.90
2023-05-19T09:05:38.443Z,2.70
2023-05-19T09:06:42.508Z,3.20
2023-05-19T09:07:44.805Z,2.87
2023-05-19T09:08:47.212Z,3.00
2023-05-19T09:09:49.454Z,3.17
2023-05-19T09:10:51.221Z,4.00
2023-05-19T09:11:52.808Z,3.43
2023-05-19T09:12:54.515Z,3.73
2023-05-19T09:13:56.216Z,3.33
2023-05-19T09:14:57.900Z,3.10
2023-05-19T09:15:59.836Z,4.00
2023-05-19T09:17:01.715Z,3.30
2023-05-19T09:18:06.736Z,3.30
2023-05-19T09:19:13.572Z,3.50
2023-05-19T09:20:16.796Z,3.70
2023-05-19T09:21:18.698Z,2.60
2023-05-19T09:22:20.582Z,3.00
2023-05-19T09:23:24.970Z,3.90
2023-05-19T09:24:27.311Z,3.50
2023-05-19T09:25:28.894Z,3.50
2023-05-19T09:26:40.486Z,3.40
2023-05-19T09:27:42.028Z,3.43
2023-05-19T09:28:44.330Z,3.40
2023-05-19T09:29:46.166Z,2.60
2023-05-19T09:30:47.733Z,2.40
2023-05-19T09:31:52.539Z,2.60
2023-05-19T09:32:54.327Z,3.60
2023-05-19T09:33:55.866Z,3.20
2023-05-19T09:34:57.444Z,2.57
2023-05-19T09:35:59.171Z,3.20
2023-05-19T09:37:00.878Z,2.80
2023-05-19T09:38:02.622Z,2.60
2023-05-19T09:39:12.518Z,2.97
2023-05-19T09:40:14.912Z,2.57
2023-05-19T09:41:16.888Z,2.73
2023-05-19T09:42:24.883Z,3.23
2023-05-19T09:43:30.227Z,2.47
2023-05-19T09:44:32.787Z,2.30
2023-05-19T09:45:34.580Z,3.00
2023-05-19T09:46:37.831Z,3.30
2023-05-19T09:47:40.392Z,2.63
2023-05-19T09:48:42.585Z,2.50
2023-05-19T09:49:47.739Z,2.93
2023-05-19T09:50:51.771Z,2.30
2023-05-19T09:51:56.790Z,3.03
2023-05-19T09:52:58.682Z,3.13
2023-05-19T09:54:00.577Z,2.33
2023-05-19T09:55:04.283Z,2.70
2023-05-19T09:56:06.204Z,2.97
2023-05-19T09:57:08.959Z,3.00
2023-05-19T09:58:12.589Z,2.60
2023-05-19T09:59:16.140Z,2.97
2023-05-19T10:00:18.487Z,2.23
2023-05-19T10:01:20.931Z,2.10
2023-05-19T10:02:24.497Z,2.67
2023-05-19T10:03:26.351Z,2.67
2023-05-19T10:04:29.073Z,2.33
2023-05-19T10:05:31.623Z,2.93
2023-05-19T10:06:33.833Z,2.53
2023-05-19T10:07:37.801Z,2.10
2023-05-19T10:08:39.673Z,2.60
2023-05-19T10:09:41.651Z,2.30
2023-05-19T10:10:45.564Z,2.97
2023-05-19T10:11:47.331Z,3.00
2023-05-19T10:12:49.814Z,3.17
2023-05-19T10:13:52.266Z,2.60
2023-05-19T10:14:55.078Z,2.80
2023-05-19T10:15:59.469Z,2.70
2023-05-19T10:17:01.788Z,2.60
2023-05-19T10:18:03.565Z,2.53
2023-05-19T10:19:05.545Z,3.10
2023-05-19T10:20:17.191Z,2.40
2023-05-19T10:21:18.867Z,2.20
2023-05-19T10:22:20.653Z,2.40
2023-05-19T10:23:22.646Z,3.00
2023-05-19T10:24:24.462Z,2.73
2023-05-19T10:25:26.467Z,2.80
2023-05-19T10:26:28.512Z,2.63
2023-05-19T10:27:30.927Z,2.60
2023-05-19T10:28:35.800Z,2.03
2023-05-19T10:29:42.870Z,2.47
2023-05-19T10:30:48.666Z,2.07
2023-05-19T10:31:51.859Z,2.40
2023-05-19T10:32:54.858Z,2.23
2023-05-19T10:34:15.386Z,2.37
2023-05-19T10:35:17.663Z,1.70
2023-05-19T10:36:31.159Z,2.93
2023-05-19T10:37:51.630Z,2.30
2023-05-19T10:39:31.936Z,2.30
2023-05-19T10:40:37.132Z,1.93
2023-05-19T10:41:45.106Z,1.57
2023-05-19T10:42:48.338Z,2.37
2023-05-19T10:43:59.163Z,2.17
2023-05-19T10:45:13.718Z,1.80
2023-05-19T10:46:15.878Z,1.53
2023-05-19T10:47:23.169Z,1.93
2023-05-19T10:48:24.729Z,2.30
2023-05-19T10:49:26.458Z,2.40
2023-05-19T10:50:35.463Z,2.23
2023-05-19T10:51:37.259Z,2.00
2023-05-19T10:52:39.892Z,2.00
2023-05-19T10:53:46.184Z,2.60
2023-05-19T10:54:47.917Z,2.00
2023-05-19T10:55:53.512Z,3.00
2023-05-19T10:56:56.701Z,2.40
2023-05-19T10:57:58.251Z,2.80
2023-05-19T10:59:00.363Z,2.57
2023-05-19T11:00:11.356Z,2.60
2023-05-19T11:01:13.771Z,2.33
2023-05-19T11:02:35.362Z,2.50
2023-05-19T11:03:47.175Z,2.47
2023-05-19T11:04:53.510Z,3.17
2023-05-19T11:06:17.341Z,2.63
2023-05-19T11:07:20.465Z,2.40
2023-05-19T11:08:32.411Z,7.93
2023-05-19T11:09:40.646Z,28.70
2023-05-19T11:10:46.436Z,7.80
2023-05-19T11:11:48.128Z,4.00
2023-05-19T11:12:50.114Z,3.90
2023-05-19T11:13:55.612Z,6.23
2023-05-19T11:14:58.041Z,3.40
2023-05-19T11:16:06.973Z,3.70
2023-05-19T11:17:12.874Z,2.63
2023-05-19T11:18:16.174Z,2.50
2023-05-19T11:19:38.115Z,2.93
2023-05-19T11:20:39.785Z,3.13
2023-05-19T11:21:42.894Z,2.80
2023-05-19T11:23:00.783Z,3.10
2023-05-19T11:24:02.480Z,2.77
2023-05-19T11:25:04.271Z,3.07
2023-05-19T11:26:06.939Z,3.27
2023-05-19T11:27:17.707Z,3.10
2023-05-19T11:28:20.278Z,2.63
2023-05-19T11:29:21.917Z,2.90
2023-05-19T11:30:23.548Z,3.40
2023-05-19T11:31:25.338Z,4.20
2023-05-19T11:32:28.413Z,3.40
2023-05-19T11:33:32.510Z,2.90
2023-05-19T11:34:35.609Z,3.67
2023-05-19T11:35:37.664Z,2.57
2023-05-19T11:36:40.105Z,3.07
2023-05-19T11:37:42.655Z,2.77
2023-05-19T11:38:45.919Z,3.00
2023-05-19T11:39:47.804Z,3.40
2023-05-19T11:40:50.010Z,3.27
2023-05-19T11:41:51.628Z,2.83
2023-05-19T11:42:53.251Z,2.90
2023-05-19T11:43:54.829Z,3.50
2023-05-19T11:44:56.446Z,3.30
2023-05-19T11:45:58.168Z,2.90
2023-05-19T11:47:00.208Z,2.73
2023-05-19T11:48:05.503Z,3.30
2023-05-19T11:49:07.299Z,3.30
2023-05-19T11:50:11.395Z,3.10
2023-05-19T11:51:13.156Z,3.10
2023-05-19T11:52:14.913Z,3.17
2023-05-19T11:53:16.979Z,2.87
2023-05-19T11:54:19.361Z,3.47
2023-05-19T11:55:23.851Z,3.53
2023-05-19T11:56:25.312Z,3.40
2023-05-19T11:57:27.108Z,2.57
2023-05-19T11:58:28.993Z,3.03
2023-05-19T11:59:35.950Z,3.50
2023-05-19T12:00:41.717Z,2.70
2023-05-19T12:01:43.285Z,3.30
2023-05-19T12:02:45.116Z,3.20
2023-05-19T12:03:46.768Z,3.37
2023-05-19T12:04:49.530Z,3.50
2023-05-19T12:05:51.463Z,2.80
2023-05-19T12:06:53.396Z,2.60
2023-05-19T12:07:55.063Z,2.87
2023-05-19T12:08:56.933Z,2.90
2023-05-19T12:09:59.755Z,3.03
2023-05-19T12:11:01.650Z,3.67
2023-05-19T12:12:03.398Z,3.47
2023-05-19T12:13:06.322Z,3.47
2023-05-19T12:14:09.602Z,3.60
2023-05-19T12:15:11.691Z,3.97
2023-05-19T12:16:13.321Z,2.87
2023-05-19T12:17:19.810Z,3.30
2023-05-19T12:18:21.566Z,3.80
2023-05-19T12:19:24.198Z,3.00
2023-05-19T12:20:26.407Z,3.40
2023-05-19T12:21:34.192Z,3.00
2023-05-19T12:22:36.847Z,3.17
2023-05-19T12:23:38.655Z,3.43
2023-05-19T12:24:40.633Z,2.80
2023-05-19T12:25:42.462Z,3.70
2023-05-19T12:26:44.399Z,3.30
2023-05-19T12:27:46.306Z,3.20
2023-05-19T12:28:48.101Z,4.40
2023-05-19T12:29:53.704Z,3.50
2023-05-19T12:30:58.528Z,4.23
2023-05-19T12:32:01.210Z,3.60
2023-05-19T12:33:03.296Z,2.70
2023-05-19T12:34:05.310Z,3.37
2023-05-19T12:35:07.348Z,3.40
2023-05-19T12:36:09.872Z,3.43
2023-05-19T12:37:11.513Z,3.53
2023-05-19T12:38:14.435Z,3.90
2023-05-19T12:39:16.141Z,3.40
2023-05-19T12:40:17.776Z,3.57
2023-05-19T12:41:19.457Z,3.90
2023-05-19T12:42:21.014Z,3.67
2023-05-19T12:43:23.248Z,3.73
2023-05-19T12:44:25.117Z,3.30
2023-05-19T12:45:30.833Z,3.07
2023-05-19T12:46:33.140Z,3.50
2023-05-19T12:47:35.862Z,2.60
2023-05-19T12:48:41.754Z,3.27
2023-05-19T12:50:02.094Z,3.30
2023-05-19T12:51:05.587Z,3.00
2023-05-19T12:52:11.831Z,2.90
2023-05-19T12:53:15.046Z,3.33
2023-05-19T12:54:18.996Z,3.40
2023-05-19T12:55:22.129Z,3.33
2023-05-19T12:56:26.922Z,3.90
2023-05-19T12:57:30.591Z,4.00
2023-05-19T12:58:34.049Z,3.37
2023-05-19T12:59:38.730Z,2.70
2023-05-19T13:00:45.215Z,3.43
2023-05-19T13:01:54.848Z,3.37
2023-05-19T13:03:00.000Z,3.43
2023-05-19T13:04:04.001Z,3.60
2023-05-19T13:05:07.840Z,3.43
2023-05-19T13:06:10.438Z,3.53
2023-05-19T13:07:12.047Z,3.23
2023-05-19T13:08:14.839Z,3.70
2023-05-19T13:09:17.855Z,2.90
2023-05-19T13:10:19.378Z,3.30
2023-05-19T13:11:21.151Z,4.00
2023-05-19T13:12:22.727Z,4.47
2023-05-19T13:13:24.319Z,3.70
2023-05-19T13:14:26.507Z,3.03
2023-05-19T13:15:31.636Z,3.97
2023-05-19T13:16:33.235Z,3.87
2023-05-19T13:17:34.844Z,4.00
2023-05-19T13:18:37.758Z,3.30
2023-05-19T13:19:39.545Z,2.80
2023-05-19T13:20:41.873Z,3.00
2023-05-19T13:21:43.796Z,3.30
2023-05-19T13:22:45.776Z,3.30
2023-05-19T13:23:47.629Z,3.33
2023-05-19T13:24:49.217Z,3.50
2023-05-19T13:25:51.645Z,3.87
2023-05-19T13:26:54.020Z,3.40
2023-05-19T13:27:56.847Z,3.00
2023-05-19T13:28:58.358Z,3.03
2023-05-19T13:29:59.922Z,4.27
2023-05-19T13:31:02.108Z,4.53
2023-05-19T13:32:03.847Z,4.00
2023-05-19T13:33:05.517Z,3.40
2023-05-19T13:34:07.126Z,3.50
2023-05-19T13:35:09.755Z,2.60
2023-05-19T13:36:11.414Z,3.03
2023-05-19T13:37:13.077Z,3.30
2023-05-19T13:38:14.635Z,3.27
2023-05-19T13:39:16.296Z,3.20
2023-05-19T13:40:18.084Z,3.13
2023-05-19T13:41:23.554Z,3.87
2023-05-19T13:42:25.148Z,4.10
2023-05-19T13:43:26.662Z,3.03
2023-05-19T13:44:28.337Z,4.00
2023-05-19T13:45:29.984Z,3.70
2023-05-19T13:46:44.161Z,3.80
2023-05-19T13:47:47.532Z,3.80
2023-05-19T13:48:49.228Z,3.80
2023-05-19T13:49:51.307Z,5.10
2023-05-19T13:50:55.575Z,4.53
2023-05-19T13:52:00.418Z,4.27
2023-05-19T13:53:02.182Z,3.70
2023-05-19T13:54:03.735Z,10.60
2023-05-19T13:55:06.685Z,5.60
2023-05-19T13:56:08.323Z,3.40
2023-05-19T13:57:09.941Z,5.87
2023-05-19T13:58:12.499Z,5.93
2023-05-19T13:59:14.358Z,4.17
2023-05-19T14:00:16.283Z,4.10